Time;durP1;ratioP1;P1;durP2;ratioP2;P2;SDS_P1;SDS_P2;PMS_P1;PMS_P2;Temp;Humidity;BMP_temperature;BMP_pressure;BME280_temperature;BME280_humidity;BME280_pressure;Samples;Min_cycle;Max_cycle;Signal;HPM_P1;HPM_P2
2022/03/19 00:09:42;;;;;;;7.50;4.18;;;11.80;61.20;;;;;;20672786;28;20054;-59
2022/03/19 00:19:44;;;;;;;9.35;4.40;;;11.70;61.60;;;;;;20672517;28;20050;-62
2022/03/19 00:29:46;;;;;;;10.30;4.13;;;11.60;61.90;;;;;;20671990;28;20051;-61
2022/03/19 00:39:48;;;;;;;9.32;4.53;;;11.50;62.20;;;;;;20671363;28;20082;-61
2022/03/19 00:49:50;;;;;;;9.35;3.78;;;11.40;62.40;;;;;;20670463;28;20092;-59
2022/03/19 00:59:52;;;;;;;9.45;4.25;;;11.50;62.40;;;;;;20670040;28;20141;-60
2022/03/19 01:09:53;;;;;;;9.77;3.90;;;11.20;62.90;;;;;;20669457;28;20145;-58
2022/03/19 01:19:58;;;;;;;8.48;3.28;;;11.30;63.00;;;;;;20668308;28;20054;-58
2022/03/19 01:30:00;;;;;;;8.15;3.47;;;11.00;63.60;;;;;;20668533;28;20097;-59
2022/03/19 01:40:04;;;;;;;8.30;3.47;;;10.90;63.90;;;;;;20667491;28;20061;-63
2022/03/19 01:50:06;;;;;;;5.25;3.55;;;10.90;64.00;;;;;;20667103;28;20129;-61
2022/03/19 02:00:11;;;;;;;7.53;3.33;;;10.90;64.10;;;;;;20666770;28;20133;-61
2022/03/19 02:10:15;;;;;;;6.25;3.30;;;10.90;64.30;;;;;;20666697;28;20046;-56
2022/03/19 02:20:17;;;;;;;8.52;3.28;;;10.90;64.50;;;;;;20680496;28;20058;-59
2022/03/19 02:30:21;;;;;;;7.93;3.90;;;10.90;64.70;;;;;;20672816;28;20112;-61
2022/03/19 02:40:24;;;;;;;7.25;3.38;;;10.80;65.10;;;;;;20680321;28;20140;-57
2022/03/19 02:50:34;;;;;;;6.32;3.10;;;10.80;65.10;;;;;;20680452;28;20053;-58
2022/03/19 03:00:36;;;;;;;;;;;10.90;65.40;;;;;;20694306;28;20046;-61
2022/03/19 03:10:38;;;;;;;7.13;3.45;;;10.70;66.00;;;;;;20679176;28;20008;-56
2022/03/19 03:20:40;;;;;;;14.00;3.70;;;10.60;66.30;;;;;;20678963;28;20054;-56
2022/03/19 03:30:43;;;;;;;8.38;3.53;;;10.50;66.80;;;;;;20676930;28;20047;-59
2022/03/19 03:40:45;;;;;;;7.80;3.60;;;10.40;67.00;;;;;;20675165;28;20078;-59
2022/03/19 03:50:53;;;;;;;7.20;3.47;;;10.30;67.50;;;;;;20676057;28;20093;-60
2022/03/19 04:00:56;;;;;;;8.10;3.38;;;10.30;67.50;;;;;;20675507;28;20487;-59
2022/03/19 04:10:58;;;;;;;8.60;3.60;;;10.40;67.70;;;;;;20674080;28;20078;-59
2022/03/19 04:21:01;;;;;;;6.55;3.20;;;10.30;67.90;;;;;;20674143;28;20514;-58
2022/03/19 04:31:03;;;;;;;10.18;4.03;;;10.10;68.50;;;;;;20672190;28;20465;-58
2022/03/19 04:41:05;;;;;;;10.13;4.32;;;10.00;68.70;;;;;;20671238;28;20050;-64
2022/03/19 04:51:16;;;;;;;9.00;3.72;;;10.00;68.90;;;;;;20671151;28;20059;-63
2022/03/19 05:01:18;;;;;;;7.63;3.30;;;10.00;69.10;;;;;;20670776;28;20058;-61
2022/03/19 05:11:20;;;;;;;7.13;4.35;;;10.10;69.10;;;;;;20670091;28;20149;-63
2022/03/19 05:21:22;;;;;;;10.18;4.18;;;10.10;69.00;;;;;;20668313;28;20109;-63
2022/03/19 05:31:25;;;;;;;8.77;3.95;;;10.10;69.10;;;;;;20667806;28;20050;-63
2022/03/19 05:41:27;;;;;;;9.13;3.90;;;10.10;69.10;;;;;;20668018;28;20399;-64
2022/03/19 05:51:29;;;;;;;12.13;4.35;;;10.00;69.30;;;;;;20667248;28;20054;-63
2022/03/19 06:01:31;;;;;;;7.03;3.90;;;10.10;69.10;;;;;;20666388;28;20456;-60
2022/03/19 06:11:32;;;;;;;8.68;4.10;;;10.10;69.10;;;;;;20697691;28;20082;-65
2022/03/19 06:21:35;;;;;;;9.77;4.20;;;10.20;69.10;;;;;;20683160;28;20058;-66
2022/03/19 06:31:37;;;;;;;7.65;3.58;;;10.10;69.10;;;;;;20683445;28;20046;-64
2022/03/19 06:41:38;;;;;;;8.70;4.30;;;10.10;69.10;;;;;;20682006;28;20049;-65
2022/03/19 06:51:40;;;;;;;8.80;4.10;;;10.30;68.70;;;;;;20679881;28;20061;-64
2022/03/19 07:01:42;;;;;;;7.57;3.63;;;10.40;68.40;;;;;;20678906;28;20042;-62
2022/03/19 07:11:44;;;;;;;7.53;3.58;;;10.50;68.00;;;;;;20679093;28;20113;-66
2022/03/19 07:21:45;;;;;;;7.38;3.47;;;10.50;67.40;;;;;;20677550;28;20054;-57
2022/03/19 07:31:47;;;;;;;8.48;3.90;;;10.60;67.10;;;;;;20677042;28;20551;-59
2022/03/19 07:41:50;;;;;;;8.98;4.35;;;10.60;66.80;;;;;;20675755;28;20056;-58
2022/03/19 07:51:55;;;;;;;12.27;4.20;;;10.70;66.10;;;;;;20675372;28;20491;-62
2022/03/19 08:01:57;;;;;;;11.45;4.20;;;10.80;65.80;;;;;;20674866;28;20093;-64
2022/03/19 08:12:00;;;;;;;11.45;4.43;;;11.00;64.80;;;;;;20674353;28;20354;-64
2022/03/19 08:22:03;;;;;;;10.98;3.67;;;11.20;64.20;;;;;;20673631;28;20058;-64
2022/03/19 08:32:05;;;;;;;15.25;4.53;;;11.10;63.70;;;;;;20671655;28;20137;-64
2022/03/19 08:42:07;;;;;;;9.57;3.88;;;11.30;63.00;;;;;;20672374;28;20415;-65
2022/03/19 08:52:08;;;;;;;10.30;4.05;;;11.50;62.40;;;;;;20671566;28;20136;-66
2022/03/19 09:02:10;;;;;;;12.02;4.28;;;11.60;61.90;;;;;;20671064;28;20108;-64
2022/03/19 09:12:11;;;;;;;11.05;4.15;;;12.00;60.90;;;;;;20669161;28;20113;-65
2022/03/19 09:22:13;;;;;;;7.47;3.75;;;12.50;59.20;;;;;;20668124;28;20050;-65
2022/03/19 09:32:18;;;;;;;7.15;3.17;;;12.80;58.50;;;;;;20668069;28;20054;-64
2022/03/19 09:42:21;;;;;;;8.35;3.40;;;13.30;57.20;;;;;;20665958;28;20436;-63
2022/03/19 09:52:25;;;;;;;6.82;3.10;;;13.50;56.70;;;;;;20682914;28;20520;-65
2022/03/19 10:02:26;;;;;;;9.93;4.05;;;13.80;56.70;;;;;;20681495;28;20042;-63
2022/03/19 10:12:30;;;;;;;11.90;4.28;;;14.30;55.30;;;;;;20666180;28;20080;-59
2022/03/19 10:22:32;;;;;;;9.88;3.47;;;14.00;56.00;;;;;;20681913;28;20427;-63
2022/03/19 10:32:36;;;;;;;7.72;3.40;;;14.00;55.90;;;;;;20665058;28;20054;-62
2022/03/19 10:42:42;;;;;;;8.05;3.95;;;14.20;55.20;;;;;;20665836;28;20077;-58
2022/03/19 10:52:45;;;;;;;12.15;4.00;;;14.40;55.00;;;;;;20672352;28;20089;-58
2022/03/19 11:02:48;;;;;;;9.43;4.57;;;14.70;54.30;;;;;;20679649;28;20082;-56
2022/03/19 11:12:53;;;;;;;12.05;4.72;;;14.30;55.00;;;;;;20679111;28;20096;-59
2022/03/19 11:22:56;;;;;;;8.10;4.22;;;14.50;54.60;;;;;;20677373;28;20046;-58
2022/03/19 11:33:19;;;;;;;7.43;3.78;;;14.70;54.30;;;;;;20676465;28;20058;-61
2022/03/19 11:43:35;;;;;;;6.97;3.70;;;14.60;54.40;;;;;;20675973;28;20556;-65
2022/03/19 11:54:00;;;;;;;9.48;3.92;;;15.00;53.80;;;;;;20675490;28;20065;-60
2022/03/19 12:04:04;;;;;;;5.18;2.80;;;15.30;52.90;;;;;;20672239;28;20096;-60
2022/03/19 12:14:15;;;;;;;12.07;3.65;;;15.60;51.60;;;;;;20673562;28;20051;-60
2022/03/19 12:24:32;;;;;;;8.57;3.45;;;15.70;51.50;;;;;;20685539;28;20082;-58
2022/03/19 12:34:34;;;;;;;8.40;3.00;;;15.90;50.50;;;;;;20671964;28;20112;-60
2022/03/19 12:44:38;;;;;;;12.45;3.20;;;15.80;50.60;;;;;;20671490;28;20054;-62
2022/03/19 12:54:47;;;;;;;13.18;4.43;;;15.70;50.00;;;;;;20670257;28;20085;-60
2022/03/19 13:04:49;;;;;;;9.95;3.63;;;15.40;50.70;;;;;;20668726;28;20117;-61
2022/03/19 13:14:53;;;;;;;9.07;4.43;;;15.40;51.40;;;;;;20683307;28;20054;-61
2022/03/19 13:24:56;;;;;;;9.52;4.45;;;15.40;52.00;;;;;;20667404;28;20046;-58
2022/03/19 13:35:00;;;;;;;11.20;3.85;;;15.30;52.40;;;;;;20667391;28;20054;-60
2022/03/19 13:45:13;;;;;;;8.23;3.60;;;15.40;52.50;;;;;;20666721;28;20090;-61
2022/03/19 13:55:31;;;;;;;7.78;4.07;;;16.20;50.70;;;;;;20665593;28;20054;-58
2022/03/19 14:05:43;;;;;;;8.93;4.10;;;16.40;50.50;;;;;;20665298;28;20495;-60
2022/03/19 14:15:53;;;;;;;8.70;3.38;;;16.00;51.20;;;;;;20665154;28;20062;-59
2022/03/19 14:25:56;;;;;;;6.13;3.58;;;15.70;51.30;;;;;;20669798;28;20065;-61
2022/03/19 14:36:02;;;;;;;4.90;2.13;;;15.90;50.60;;;;;;20679668;28;20056;-60
2022/03/19 14:46:05;;;;;;;5.45;2.10;;;16.20;49.90;;;;;;20679917;28;20050;-60
2022/03/19 14:56:09;;;;;;;5.18;2.20;;;16.10;48.00;;;;;;20679210;28;20062;-61
2022/03/19 15:06:11;;;;;;;8.60;3.15;;;16.10;47.60;;;;;;20679548;28;20463;-61
2022/03/19 15:16:14;;;;;;;8.32;3.03;;;15.90;47.70;;;;;;20677481;28;20054;-61
2022/03/19 15:26:16;;;;;;;8.05;2.50;;;16.00;47.90;;;;;;20676632;28;20050;-61
2022/03/19 15:36:20;;;;;;;7.55;2.15;;;15.90;48.40;;;;;;20688644;28;20843;-59
2022/03/19 15:46:22;;;;;;;5.13;2.30;;;15.70;48.60;;;;;;20690052;28;20061;-60
2022/03/19 15:56:26;;;;;;;7.43;2.20;;;15.70;48.80;;;;;;20673632;28;20101;-62
2022/03/19 16:06:27;;;;;;;5.38;2.78;;;15.50;49.10;;;;;;20673486;28;20073;-59
2022/03/19 16:16:29;;;;;;;6.18;2.30;;;15.30;49.60;;;;;;20673136;28;20133;-65
2022/03/19 16:26:31;;;;;;;8.18;2.00;;;15.30;50.00;;;;;;20670926;28;20459;-60
2022/03/19 16:36:33;;;;;;;7.18;2.80;;;15.10;50.50;;;;;;20672003;28;20521;-61
2022/03/19 16:46:35;;;;;;;4.90;2.05;;;15.10;50.50;;;;;;20670002;28;20054;-59
2022/03/19 16:56:36;;;;;;;6.95;2.60;;;14.90;50.90;;;;;;20669258;28;20055;-58
2022/03/19 17:06:38;;;;;;;4.88;2.53;;;14.70;51.30;;;;;;20669309;28;20053;-59
2022/03/19 17:16:40;;;;;;;6.25;1.95;;;14.60;51.40;;;;;;20668633;28;20058;-60
2022/03/19 17:26:41;;;;;;;7.03;2.42;;;14.60;51.20;;;;;;20667813;28;20400;-61
2022/03/19 17:36:43;;;;;;;6.70;2.30;;;14.50;51.30;;;;;;20666593;28;20069;-58
2022/03/19 17:46:45;;;;;;;5.70;2.67;;;14.60;51.40;;;;;;20667815;28;20125;-60
2022/03/19 17:56:47;;;;;;;8.50;3.17;;;14.50;51.40;;;;;;20665631;28;20050;-61
2022/03/19 18:06:49;;;;;;;6.13;2.47;;;14.50;51.50;;;;;;20665534;28;20046;-61
2022/03/19 18:16:51;;;;;;;6.65;2.47;;;14.40;51.80;;;;;;20664992;28;20046;-61
2022/03/19 18:26:52;;;;;;;5.75;2.45;;;14.40;52.20;;;;;;20664679;28;20466;-59
2022/03/19 18:36:55;;;;;;;8.05;2.60;;;14.40;52.10;;;;;;20664478;28;20062;-61
2022/03/19 18:46:57;;;;;;;6.68;2.58;;;14.40;51.70;;;;;;20664982;28;20441;-61
2022/03/19 18:57:00;;;;;;;12.45;4.07;;;14.30;51.90;;;;;;20664434;28;20061;-62
2022/03/19 19:07:08;;;;;;;13.90;8.32;;;14.20;52.90;;;;;;20663357;28;20110;-59
2022/03/19 19:17:10;;;;;;;11.48;5.50;;;14.00;54.10;;;;;;20676147;28;20057;-62
2022/03/19 19:27:12;;;;;;;9.18;5.03;;;13.90;54.40;;;;;;20676624;28;20054;-61
2022/03/19 19:37:14;;;;;;;8.80;4.97;;;13.90;54.80;;;;;;20675732;28;20101;-61
2022/03/19 19:47:16;;;;;;;13.55;6.15;;;13.80;55.30;;;;;;20689950;28;20057;-63
2022/03/19 20:07:43;;;;;;;12.13;5.18;;;13.70;56.30;;;;;;20675360;28;20050;-61
2022/03/19 20:17:45;;;;;;;17.25;7.65;;;13.70;57.00;;;;;;20676607;28;20050;-70
2022/03/19 20:27:48;;;;;;;14.07;6.93;;;13.60;57.40;;;;;;20676642;28;20378;-62
2022/03/19 20:37:55;;;;;;;11.50;6.55;;;13.50;58.00;;;;;;20671717;28;20086;-73
2022/03/19 20:47:57;;;;;;;14.77;8.90;;;13.60;58.30;;;;;;20672750;28;20050;-71
2022/03/19 20:58:00;;;;;;;13.80;6.53;;;13.60;58.50;;;;;;20691005;28;20054;-72
2022/03/19 21:08:07;;;;;;;10.13;4.68;;;13.40;61.00;;;;;;20672140;28;20474;-60
2022/03/19 21:18:08;;;;;;;7.63;3.55;;;13.20;62.60;;;;;;20669563;28;20058;-66
2022/03/19 21:28:10;;;;;;;7.00;3.72;;;12.90;64.20;;;;;;20668057;28;20116;-63
2022/03/19 21:38:12;;;;;;;50.35;23.63;;;12.70;65.80;;;;;;20666969;28;20445;-65
2022/03/19 21:48:15;;;;;;;9.38;3.83;;;12.70;66.60;;;;;;20666831;28;20046;-67
2022/03/19 21:58:18;;;;;;;7.50;4.05;;;12.70;66.90;;;;;;20668666;28;20173;-65
2022/03/19 22:08:20;;;;;;;6.00;2.75;;;12.70;66.90;;;;;;20668546;28;20105;-61
2022/03/19 22:18:22;;;;;;;6.45;2.95;;;12.70;66.90;;;;;;20667818;28;20054;-65
2022/03/19 22:28:23;;;;;;;11.38;3.80;;;12.50;67.10;;;;;;20667638;28;20054;-65
2022/03/19 22:38:25;;;;;;;9.40;2.65;;;12.40;67.50;;;;;;20665554;28;20061;-75
2022/03/19 22:48:27;;;;;;;6.95;2.47;;;12.40;67.60;;;;;;20674320;28;20042;-75
2022/03/19 22:58:28;;;;;;;4.63;1.60;;;12.40;67.50;;;;;;20680692;28;20089;-76
2022/03/19 23:08:30;;;;;;;3.10;1.75;;;12.40;67.20;;;;;;20681479;28;20086;-72
2022/03/19 23:18:32;;;;;;;6.43;1.55;;;12.40;67.10;;;;;;20683772;28;20486;-74
2022/03/19 23:28:34;;;;;;;1.83;1.10;;;12.40;67.30;;;;;;20721617;28;20050;-68
2022/03/19 23:38:37;;;;;;;3.08;1.33;;;12.40;67.30;;;;;;20680165;28;20124;-74
2022/03/19 23:48:41;;;;;;;3.17;1.45;;;12.40;66.80;;;;;;20692245;28;20050;-74
2022/03/19 23:58:45;;;;;;;6.97;2.10;;;12.30;66.50;;;;;;20674933;28;20100;-68
